Time;durP1;ratioP1;P1;durP2;ratioP2;P2;SDS_P1;SDS_P2;PMS_P1;PMS_P2;Temp;Humidity;BMP_temperature;BMP_pressure;BME280_temperature;BME280_humidity;BME280_pressure;Samples;Min_cycle;Max_cycle;Signal;HPM_P1;HPM_P2
2022/12/25 00:00:43;;;;;;;4.97;2.45;;;;;;;4.79;100.00;95768.06;4984010;28;20118;-75
2022/12/25 00:03:28;;;;;;;5.13;2.78;;;;;;;4.75;100.00;95761.69;4991374;28;20460;-76
2022/12/25 00:05:57;;;;;;;4.07;2.70;;;;;;;4.76;100.00;95755.47;4975875;28;20046;-74
2022/12/25 00:08:22;;;;;;;7.22;2.90;;;;;;;4.68;100.00;95746.97;4992957;28;20049;-75
2022/12/25 00:10:56;;;;;;;8.02;3.38;;;;;;;4.69;100.00;95743.31;4993526;28;20046;-76
2022/12/25 00:13:21;;;;;;;7.57;3.25;;;;;;;4.62;100.00;95731.44;4994022;28;20050;-75
2022/12/25 00:15:47;;;;;;;7.28;3.13;;;;;;;4.63;100.00;95728.59;4988531;28;20093;-75
2022/12/25 00:18:12;;;;;;;6.88;3.30;;;;;;;4.65;100.00;95726.53;4984956;28;20101;-76
2022/12/25 00:20:38;;;;;;;5.40;2.92;;;;;;;4.64;100.00;95719.75;4966827;28;20038;-76
2022/12/25 00:23:03;;;;;;;9.20;3.80;;;;;;;4.71;100.00;95730.06;4996007;28;20046;-76
2022/12/25 00:25:29;;;;;;;8.30;3.25;;;;;;;4.73;100.00;95727.25;4989429;28;20038;-75
2022/12/25 00:27:54;;;;;;;8.07;3.53;;;;;;;4.74;100.00;95724.41;4983043;28;20540;-76
2022/12/25 00:30:20;;;;;;;7.72;3.00;;;;;;;4.76;100.00;95732.00;4988829;28;20046;-75
2022/12/25 00:32:45;;;;;;;5.57;2.80;;;;;;;4.74;100.00;95732.25;4976195;28;20038;-75
2022/12/25 00:35:11;;;;;;;4.30;2.20;;;;;;;4.84;100.00;95742.06;4975189;28;20503;-75
2022/12/25 00:37:36;;;;;;;3.97;2.10;;;;;;;4.88;100.00;95735.38;4988060;28;20299;-75
2022/12/25 00:40:02;;;;;;;4.25;2.00;;;;;;;4.94;100.00;95739.72;4975483;28;20042;-76
2022/12/25 00:42:28;;;;;;;8.10;2.20;;;;;;;4.89;100.00;95742.19;4991191;28;20042;-76
2022/12/25 00:44:54;;;;;;;4.32;1.98;;;;;;;4.92;100.00;95749.56;4991069;28;20038;-76
2022/12/25 00:47:19;;;;;;;3.45;1.70;;;;;;;4.88;100.00;95742.44;4992507;28;20584;-76
2022/12/25 00:49:45;;;;;;;4.35;1.77;;;;;;;4.91;100.00;95747.97;4987648;28;20038;-76
2022/12/25 00:52:10;;;;;;;5.10;2.20;;;;;;;4.84;100.00;95744.69;4975048;28;20440;-75
2022/12/25 00:54:36;;;;;;;4.90;1.92;;;;;;;4.80;100.00;95740.97;4992760;28;20042;-75
2022/12/25 00:57:02;;;;;;;5.57;1.83;;;;;;;4.78;100.00;95746.38;4992160;28;20042;-75
2022/12/25 00:59:31;;;;;;;4.07;1.90;;;;;;;4.70;100.00;95749.34;4991275;28;20278;-75
2022/12/25 01:02:21;;;;;;;3.22;1.80;;;;;;;4.69;100.00;95743.31;4993148;28;20054;-75
2022/12/25 01:04:42;;;;;;;5.78;1.80;;;;;;;4.66;100.00;95746.38;4991847;28;20500;-75
2022/12/25 01:07:07;;;;;;;4.93;1.90;;;;;;;4.68;100.00;95736.53;4982489;28;20053;-75
2022/12/25 01:12:17;;;;;;;3.17;1.60;;;;;;;4.75;100.00;95735.63;4992966;28;20046;-76
2022/12/25 01:14:43;;;;;;;3.30;1.90;;;;;;;4.77;100.00;95744.00;4992674;28;20478;-75
2022/12/25 01:17:08;;;;;;;4.07;2.05;;;;;;;4.76;100.00;95742.44;4992818;28;20515;-75
2022/12/25 01:19:34;;;;;;;2.95;1.60;;;;;;;4.74;100.00;95749.69;4982726;28;20078;-76
2022/12/25 01:21:59;;;;;;;2.53;1.30;;;;;;;4.88;100.00;95745.81;4975157;28;20101;-75
2022/12/25 01:24:25;;;;;;;5.97;1.85;;;;;;;4.93;100.00;95751.16;4991871;28;20038;-74
2022/12/25 01:26:50;;;;;;;2.88;1.73;;;;;;;4.91;100.00;95734.16;4992406;28;20042;-76
2022/12/25 01:29:16;;;;;;;2.97;1.60;;;;;;;5.06;100.00;95741.50;4976256;28;20265;-75
2022/12/25 01:31:41;;;;;;;4.72;1.70;;;;;;;5.10;100.00;95747.84;4992304;28;20042;-75
2022/12/25 01:34:07;;;;;;;4.30;1.40;;;;;;;5.21;100.00;95744.44;4975314;28;20093;-76
2022/12/25 01:36:32;;;;;;;1.75;1.30;;;;;;;5.18;100.00;95739.69;4989774;28;20103;-75
2022/12/25 01:38:58;;;;;;;3.08;1.70;;;;;;;5.21;100.00;95741.84;4955906;28;20051;-75
2022/12/25 01:41:24;;;;;;;3.60;1.60;;;;;;;5.12;100.00;95730.19;4990130;28;20535;-75
2022/12/25 01:44:04;;;;;;;3.20;1.65;;;;;;;5.12;100.00;95730.19;4971489;28;20038;-75
2022/12/25 01:46:30;;;;;;;5.22;1.48;;;;;;;5.15;100.00;95732.31;4984108;28;20120;-76
2022/12/25 01:49:01;;;;;;;3.00;1.70;;;;;;;5.04;100.00;95728.69;4982317;28;20042;-75
2022/12/25 01:51:41;;;;;;;3.22;1.70;;;;;;;4.92;100.00;95733.91;4988089;28;20204;-76
2022/12/25 01:54:13;;;;;;;3.22;1.55;;;;;;;5.05;100.00;95729.50;4991293;28;20050;-75
2022/12/25 01:56:40;;;;;;;3.00;1.50;;;;;;;5.12;100.00;95743.22;4989487;28;20533;-76
2022/12/25 01:59:08;;;;;;;3.13;1.55;;;;;;;5.09;100.00;95735.84;4986454;28;20073;-76
2022/12/25 02:01:34;;;;;;;2.97;1.65;;;;;;;5.06;100.00;95741.50;4991897;28;20058;-74
2022/12/25 02:04:07;;;;;;;2.22;1.23;;;;;;;5.02;100.00;95736.75;4992112;28;20069;-75
2022/12/25 02:06:34;;;;;;;3.75;1.58;;;;;;;4.97;100.00;95728.81;4988552;28;20045;-76
2022/12/25 02:08:59;;;;;;;2.95;1.42;;;;;;;4.98;100.00;95725.19;4991630;28;20119;-76
2022/12/25 02:14:10;;;;;;;4.82;1.80;;;;;;;4.99;100.00;95711.13;4990905;28;20051;-76
2022/12/25 02:16:38;;;;;;;3.63;1.50;;;;;;;4.96;100.00;95705.59;4985846;28;20093;-76
2022/12/25 02:19:30;;;;;;;3.33;1.48;;;;;;;4.98;100.00;95704.31;4980777;28;20047;-75
2022/12/25 02:22:18;;;;;;;2.95;1.60;;;;;;;4.94;100.00;95712.81;4987367;28;20038;-75
2022/12/25 02:25:09;;;;;;;4.75;2.03;;;;;;;4.86;100.00;95722.59;4991358;28;20050;-75
2022/12/25 02:28:04;;;;;;;4.53;1.60;;;;;;;4.79;100.00;95710.69;4984895;28;20070;-75
2022/12/25 02:30:36;;;;;;;2.20;1.27;;;;;;;4.72;100.00;95702.19;4990130;28;20039;-76
2022/12/25 02:35:59;;;;;;;2.95;1.77;;;;;;;4.72;100.00;95710.78;4986200;28;20047;-75
2022/12/25 02:38:33;;;;;;;2.17;1.40;;;;;;;4.71;100.00;95713.63;4970292;28;20054;-76
2022/12/25 02:41:03;;;;;;;;;;;;;;;4.76;100.00;95721.56;4990794;28;20046;-75
2022/12/25 03:12:16;;;;;;;3.58;1.95;;;;;;;4.60;100.00;95718.63;4990492;28;20073;-75
2022/12/25 03:17:29;;;;;;;;;;;;;;;4.61;100.00;95715.00;4991159;28;20049;-76
2022/12/25 03:28:11;;;;;;;4.03;1.90;;;;;;;4.64;100.00;95714.53;4987855;28;20042;-76
2022/12/25 04:37:43;;;;;;;3.35;1.75;;;;;;;4.99;100.00;95689.47;4988996;28;20049;-75
2022/12/25 04:40:09;;;;;;;3.47;1.90;;;;;;;5.01;100.00;95682.19;4990777;28;20050;-75
2022/12/25 04:42:35;;;;;;;3.40;1.98;;;;;;;4.90;100.00;95686.44;4992706;28;20134;-76
2022/12/25 04:45:00;;;;;;;3.55;2.00;;;;;;;4.86;100.00;95690.50;4990812;28;20493;-75
2022/12/25 04:47:26;;;;;;;3.65;1.90;;;;;;;4.90;100.00;95691.63;4993440;28;20046;-75
2022/12/25 04:49:51;;;;;;;3.00;1.67;;;;;;;4.93;100.00;95691.19;4980433;28;20038;-75
2022/12/25 04:52:17;;;;;;;3.63;1.90;;;;;;;4.96;100.00;95674.28;4992899;28;20053;-75
2022/12/25 04:54:42;;;;;;;4.88;2.13;;;;;;;4.93;100.00;95672.13;4974992;28;20509;-76
2022/12/25 04:57:08;;;;;;;3.72;2.03;;;;;;;4.82;100.00;95673.72;4993098;28;20047;-75
2022/12/25 04:59:33;;;;;;;4.32;2.15;;;;;;;4.75;100.00;95662.63;4978893;28;20580;-75
2022/12/25 05:01:59;;;;;;;3.63;2.20;;;;;;;4.63;100.00;95676.47;4975762;28;20046;-75
2022/12/25 05:04:24;;;;;;;3.08;1.95;;;;;;;4.66;100.00;95686.44;4976038;28;20489;-75
2022/12/25 05:06:50;;;;;;;5.47;2.28;;;;;;;4.74;100.00;95681.88;4991647;28;20042;-75
2022/12/25 05:09:15;;;;;;;7.03;2.65;;;;;;;4.77;100.00;95689.25;4992115;28;20053;-75
2022/12/25 05:11:41;;;;;;;4.40;2.53;;;;;;;4.81;100.00;95690.38;4992193;28;20117;-75
2022/12/25 05:14:07;;;;;;;5.30;2.67;;;;;;;4.87;100.00;95676.47;4993135;28;20073;-75
2022/12/25 05:16:32;;;;;;;4.63;2.10;;;;;;;4.79;100.00;95674.19;4991101;28;20169;-75
2022/12/25 05:18:58;;;;;;;4.50;2.17;;;;;;;4.69;100.00;95665.09;4982837;28;20557;-75
2022/12/25 05:21:23;;;;;;;3.70;2.33;;;;;;;4.63;100.00;95671.25;4986610;28;20503;-75
2022/12/25 05:23:50;;;;;;;8.70;2.65;;;;;;;4.60;100.00;95687.34;4993002;28;20100;-75
2022/12/25 05:26:20;;;;;;;6.15;2.60;;;;;;;4.63;100.00;95684.28;4991335;28;20042;-75
2022/12/25 05:28:45;;;;;;;4.75;2.38;;;;;;;4.63;100.00;95681.66;4991775;28;20444;-75
2022/12/25 05:31:11;;;;;;;4.07;2.63;;;;;;;4.65;100.00;95674.41;4992144;28;20128;-75
2022/12/25 05:33:37;;;;;;;7.57;2.80;;;;;;;4.67;100.00;95672.38;4992458;28;20114;-75
2022/12/25 05:36:07;;;;;;;5.05;2.90;;;;;;;4.56;100.00;95680.22;4989705;28;20449;-75
2022/12/25 05:38:33;;;;;;;4.93;2.55;;;;;;;4.60;100.00;95674.31;4992775;28;20512;-75
2022/12/25 05:40:59;;;;;;;4.50;2.47;;;;;;;4.60;100.00;95671.69;4974393;28;20049;-75
2022/12/25 05:43:26;;;;;;;7.00;2.47;;;;;;;4.65;100.00;95674.41;4990726;28;20065;-75
2022/12/25 05:45:52;;;;;;;7.15;2.78;;;;;;;4.64;100.00;95678.06;4974355;28;20035;-75
2022/12/25 05:48:17;;;;;;;6.10;2.40;;;;;;;4.59;100.00;95677.13;4970970;28;20117;-75
2022/12/25 05:50:43;;;;;;;5.80;2.78;;;;;;;4.63;100.00;95676.47;4970824;28;20144;-75
2022/12/25 05:53:11;;;;;;;6.13;2.80;;;;;;;4.67;100.00;95674.97;4974857;28;20050;-75
2022/12/25 05:55:39;;;;;;;6.63;2.88;;;;;;;4.71;100.00;95666.69;4991175;28;20725;-75
2022/12/25 05:58:06;;;;;;;5.47;2.83;;;;;;;4.55;100.00;95663.75;4990084;28;20680;-75
2022/12/25 06:00:32;;;;;;;8.27;3.00;;;;;;;4.48;100.00;95666.50;4971942;28;20038;-74
2022/12/25 06:02:58;;;;;;;5.20;2.53;;;;;;;4.41;100.00;95657.19;4997334;28;20065;-75
2022/12/25 06:05:24;;;;;;;5.07;2.90;;;;;;;4.32;100.00;95662.75;4969595;28;20045;-74
2022/12/25 06:07:50;;;;;;;5.43;3.13;;;;;;;4.29;100.00;95665.78;4990341;28;20413;-74
2022/12/25 06:10:15;;;;;;;5.60;2.75;;;;;;;4.41;100.00;95663.22;4991975;28;20487;-75
2022/12/25 06:12:41;;;;;;;6.38;2.92;;;;;;;4.42;100.00;95664.00;4991476;28;20049;-75
2022/12/25 06:15:07;;;;;;;7.50;3.08;;;;;;;4.42;100.00;95669.19;4985690;28;20076;-75
2022/12/25 06:17:32;;;;;;;5.45;2.70;;;;;;;4.40;100.00;95660.81;4974499;28;20053;-75
2022/12/25 06:19:58;;;;;;;6.68;3.08;;;;;;;4.32;100.00;95659.34;4989170;28;20039;-75
2022/12/25 06:22:31;;;;;;;5.95;2.97;;;;;;;4.26;100.00;95666.22;4991684;28;20050;-75
2022/12/25 06:24:57;;;;;;;4.43;2.80;;;;;;;4.28;100.00;95669.44;4990923;28;20046;-75
2022/12/25 06:27:23;;;;;;;9.20;2.83;;;;;;;4.27;100.00;95660.00;4970925;28;20421;-75
2022/12/25 06:29:49;;;;;;;6.18;2.95;;;;;;;4.30;100.00;95661.38;4985488;28;20045;-75
2022/12/25 06:32:14;;;;;;;9.63;3.38;;;;;;;4.19;100.00;95652.53;4991494;28;20042;-75
2022/12/25 06:34:40;;;;;;;7.13;3.22;;;;;;;4.18;100.00;95661.38;4988843;28;20042;-75
2022/12/25 06:37:05;;;;;;;5.43;2.72;;;;;;;4.11;100.00;95658.09;4967935;28;20038;-75
2022/12/25 06:39:31;;;;;;;5.68;2.47;;;;;;;4.23;100.00;95671.13;4963997;28;20053;-75
2022/12/25 06:41:56;;;;;;;4.90;2.85;;;;;;;4.25;100.00;95664.66;4973614;28;20046;-75
2022/12/25 06:44:22;;;;;;;5.35;2.97;;;;;;;4.23;100.00;95660.69;4973370;28;20474;-75
2022/12/25 06:46:48;;;;;;;6.40;3.20;;;;;;;4.21;100.00;95660.94;4981759;28;20050;-75
2022/12/25 06:49:14;;;;;;;7.20;3.53;;;;;;;4.10;100.00;95661.69;4983562;28;20648;-75
2022/12/25 06:51:40;;;;;;;6.68;3.42;;;;;;;4.15;100.00;95659.19;4973666;28;20110;-75
2022/12/25 06:54:07;;;;;;;7.97;3.25;;;;;;;4.20;100.00;95667.16;4989966;28;20038;-75
2022/12/25 06:56:33;;;;;;;5.72;3.05;;;;;;;4.15;100.00;95660.00;4987311;28;20450;-75
2022/12/25 06:59:02;;;;;;;5.30;3.42;;;;;;;4.22;100.00;95664.31;4990386;28;20050;-75
2022/12/25 07:01:49;;;;;;;6.75;3.33;;;;;;;4.24;100.00;95663.06;4973471;28;20064;-75
2022/12/25 07:04:37;;;;;;;5.38;3.00;;;;;;;4.26;100.00;95665.44;4990225;28;20141;-75
2022/12/25 07:07:04;;;;;;;9.68;3.60;;;;;;;4.22;100.00;95670.31;4984926;28;20117;-75
2022/12/25 07:09:30;;;;;;;7.97;3.45;;;;;;;4.14;100.00;95668.84;4989910;28;20097;-75
2022/12/25 07:12:12;;;;;;;6.47;3.38;;;;;;;4.17;100.00;95670.19;4990605;28;20412;-75
2022/12/25 07:14:38;;;;;;;7.18;3.67;;;;;;;4.26;100.00;95660.25;4963986;28;20042;-75
2022/12/25 07:17:04;;;;;;;5.47;2.95;;;;;;;4.28;100.00;95666.81;4973096;28;20054;-75
2022/12/25 07:19:29;;;;;;;5.35;2.75;;;;;;;4.31;100.00;95658.56;4980956;28;20682;-75
2022/12/25 07:21:55;;;;;;;6.63;2.85;;;;;;;4.37;100.00;95656.03;4996693;28;20038;-75
2022/12/25 07:24:22;;;;;;;6.10;3.10;;;;;;;4.41;100.00;95662.41;4990298;28;20135;-76
2022/12/25 07:26:49;;;;;;;7.05;3.10;;;;;;;4.39;100.00;95664.44;4989609;28;20113;-75
2022/12/25 07:29:16;;;;;;;5.65;3.10;;;;;;;4.43;100.00;95657.78;4971094;28;20046;-75
2022/12/25 07:31:42;;;;;;;9.90;3.97;;;;;;;4.42;100.00;95671.81;4990318;28;20073;-76
2022/12/25 07:34:08;;;;;;;7.55;3.17;;;;;;;4.45;100.00;95658.31;4990229;28;20042;-75
2022/12/25 07:36:33;;;;;;;7.72;3.42;;;;;;;4.50;100.00;95661.06;4990436;28;20046;-75
2022/12/25 07:38:59;;;;;;;6.90;3.05;;;;;;;4.71;100.00;95666.69;4978845;28;20050;-75
2022/12/25 07:41:24;;;;;;;6.65;2.80;;;;;;;4.76;100.00;95664.22;4990109;28;20170;-75
2022/12/25 07:43:52;;;;;;;8.38;3.20;;;;;;;4.73;100.00;95659.47;4990799;28;20598;-76
2022/12/25 07:46:17;;;;;;;6.00;3.40;;;;;;;4.77;100.00;95660.56;4971572;28;20129;-75
2022/12/25 07:48:43;;;;;;;6.35;2.70;;;;;;;4.81;100.00;95661.69;4965725;28;20062;-75
2022/12/25 07:51:13;;;;;;;8.98;3.80;;;;;;;4.71;100.00;95662.28;4984236;28;20050;-75
2022/12/25 07:53:39;;;;;;;6.82;3.35;;;;;;;4.71;100.00;95661.50;4989677;28;20042;-74
2022/12/25 07:56:16;;;;;;;5.97;3.10;;;;;;;4.80;100.00;95654.91;4988997;28;20042;-75
2022/12/25 07:58:42;;;;;;;6.28;3.20;;;;;;;4.77;100.00;95655.34;4972484;28;20519;-76
2022/12/25 08:01:37;;;;;;;6.32;2.53;;;;;;;5.01;100.00;95651.72;4972374;28;20043;-75
2022/12/25 08:04:03;;;;;;;7.60;3.40;;;;;;;5.22;100.00;95652.09;4979846;28;20560;-74
2022/12/25 08:06:31;;;;;;;5.90;3.03;;;;;;;5.29;100.00;95663.19;4984475;28;20071;-75
2022/12/25 08:09:03;;;;;;;8.27;3.45;;;;;;;5.33;100.00;95651.28;4989478;28;20048;-76
2022/12/25 08:11:28;;;;;;;8.43;3.40;;;;;;;5.37;100.00;95655.00;4971963;28;20389;-76
2022/12/25 08:13:54;;;;;;;7.28;3.60;;;;;;;5.53;100.00;95647.44;4990310;28;20049;-75
2022/12/25 08:16:19;;;;;;;9.82;2.88;;;;;;;5.52;100.00;95646.66;4985198;28;20496;-75
2022/12/25 08:18:45;;;;;;;7.43;3.42;;;;;;;5.56;100.00;95641.78;4984201;28;20042;-75
2022/12/25 08:21:13;;;;;;;9.85;2.80;;;;;;;5.71;100.00;95639.41;4989357;28;20169;-75
2022/12/25 08:23:44;;;;;;;11.45;2.92;;;;;;;5.91;100.00;95648.63;4989097;28;20046;-75
2022/12/25 08:26:13;;;;;;;7.78;2.78;;;;;;;5.96;100.00;95646.13;4991102;28;20049;-75
2022/12/25 08:28:38;;;;;;;6.63;2.70;;;;;;;6.07;100.00;95647.88;4992705;28;20046;-75
2022/12/25 08:31:06;;;;;;;6.45;3.08;;;;;;;6.15;100.00;95644.09;4993197;28;20077;-76
2022/12/25 08:33:32;;;;;;;6.63;2.80;;;;;;;6.20;100.00;95646.00;4992334;28;20039;-76
2022/12/25 08:36:02;;;;;;;7.57;3.05;;;;;;;6.26;100.00;95649.47;4986958;28;20039;-75
2022/12/25 08:38:27;;;;;;;7.20;2.75;;;;;;;6.28;100.00;95647.41;4992230;28;20080;-76
2022/12/25 08:40:53;;;;;;;5.53;2.70;;;;;;;6.35;100.00;95646.22;4993209;28;20748;-75
2022/12/25 08:43:18;;;;;;;5.78;2.70;;;;;;;6.35;100.00;95654.06;4989367;28;20071;-76
2022/12/25 08:45:46;;;;;;;8.90;2.60;;;;;;;6.35;100.00;95648.84;4995641;28;20046;-75
2022/12/25 08:48:12;;;;;;;5.85;2.65;;;;;;;6.36;100.00;95645.19;4972493;28;20061;-76
2022/12/25 08:50:37;;;;;;;6.38;3.00;;;;;;;6.50;100.00;95644.88;4991794;28;20500;-75
2022/12/25 08:53:03;;;;;;;6.88;2.25;;;;;;;6.45;100.00;95636.94;4975903;28;20050;-75
2022/12/25 08:55:28;;;;;;;5.30;2.63;;;;;;;6.48;100.00;95645.13;4994305;28;20046;-75
2022/12/25 08:57:54;;;;;;;6.10;2.72;;;;;;;6.51;100.00;95634.16;4972220;28;20053;-75
2022/12/25 09:00:20;;;;;;;5.40;2.22;;;;;;;6.58;100.00;95636.63;4971058;28;20046;-75
2022/12/25 09:02:45;;;;;;;5.20;2.65;;;;;;;6.59;100.00;95632.97;4991839;28;20035;-75
2022/12/25 09:05:11;;;;;;;5.13;2.60;;;;;;;6.67;100.00;95637.00;4988152;28;20078;-76
2022/12/25 09:07:36;;;;;;;4.80;2.45;;;;;;;6.79;100.00;95639.50;4988686;28;20042;-75
2022/12/25 09:10:02;;;;;;;4.78;2.30;;;;;;;6.95;100.00;95636.03;4993112;28;20515;-76
2022/12/25 09:12:28;;;;;;;5.70;2.15;;;;;;;6.99;100.00;95631.91;4992590;28;20038;-75
2022/12/25 09:14:53;;;;;;;5.32;2.63;;;;;;;7.06;100.00;95622.06;4986431;28;20050;-76
2022/12/25 09:17:19;;;;;;;5.22;2.10;;;;;;;7.18;100.00;95618.53;4980211;28;20054;-75
2022/12/25 09:19:44;;;;;;;4.18;2.20;;;;;;;7.22;100.00;95617.00;4987250;28;20042;-76
2022/12/25 09:22:10;;;;;;;7.97;1.73;;;;;;;7.41;100.00;95618.28;4996033;28;20141;-75
2022/12/25 09:24:38;;;;;;;4.45;1.83;;;;;;;7.61;100.00;95622.13;4975040;28;20042;-75
2022/12/25 09:27:03;;;;;;;4.72;2.25;;;;;;;7.68;100.00;95612.22;4974705;28;20043;-75
2022/12/25 09:29:29;;;;;;;3.58;1.85;;;;;;;7.85;100.00;95616.59;4977281;28;20117;-75
2022/12/25 09:31:54;;;;;;;4.13;2.03;;;;;;;8.06;100.00;95610.47;4973732;28;20108;-75
2022/12/25 09:34:20;;;;;;;4.32;2.00;;;;;;;8.18;100.00;95606.88;4992272;28;20042;-75
2022/12/25 09:36:45;;;;;;;5.75;2.53;;;;;;;8.39;100.00;95605.97;4990815;28;20093;-74
2022/12/25 09:39:11;;;;;;;5.13;1.90;;;;;;;8.56;100.00;95608.47;4989255;28;20043;-76
2022/12/25 09:41:50;;;;;;;6.38;2.35;;;;;;;8.78;100.00;95594.44;4993072;28;20053;-76
2022/12/25 09:44:39;;;;;;;3.63;1.80;;;;;;;9.41;100.00;95604.88;4978608;28;20042;-75
2022/12/25 09:47:10;;;;;;;4.82;1.90;;;;;;;10.31;100.00;95606.25;4974029;28;20055;-76
2022/12/25 09:49:47;;;;;;;3.70;1.70;;;;;;;10.50;100.00;95593.38;4991798;28;20535;-75
2022/12/25 09:52:28;;;;;;;3.42;1.83;;;;;;;10.88;100.00;95593.78;4991741;28;20412;-76
2022/12/25 09:55:07;;;;;;;3.30;1.80;;;;;;;10.99;100.00;95588.47;4985044;28;20046;-76
2022/12/25 09:57:32;;;;;;;4.18;2.05;;;;;;;11.61;100.00;95588.97;4990888;28;20093;-76
2022/12/25 09:59:58;;;;;;;4.95;2.13;;;;;;;11.56;100.00;95587.13;4975310;28;20046;-75
2022/12/25 10:02:33;;;;;;;4.88;2.35;;;;;;;12.30;100.00;95584.50;4992129;28;20054;-74
2022/12/25 10:05:20;;;;;;;2.15;1.45;;;;;;;12.53;100.00;95581.38;4991992;28;20409;-76
2022/12/25 10:08:20;;;;;;;2.47;1.60;;;;;;;13.16;100.00;95594.44;4976298;28;20046;-75
2022/12/25 10:10:57;;;;;;;3.17;1.70;;;;;;;13.36;100.00;95592.63;4974965;28;20042;-76
2022/12/25 10:13:50;;;;;;;3.58;1.80;;;;;;;13.57;100.00;95598.41;4991886;28;20058;-75
2022/12/25 10:16:23;;;;;;;3.45;1.70;;;;;;;12.62;100.00;95590.28;4994566;28;20492;-76
2022/12/25 10:19:15;;;;;;;3.30;1.67;;;;;;;13.12;100.00;95582.06;4985837;28;20042;-76
2022/12/25 10:21:41;;;;;;;2.53;1.60;;;;;;;13.18;100.00;95586.22;4974788;28;20042;-76
2022/12/25 10:24:18;;;;;;;3.40;1.80;;;;;;;13.76;100.00;95584.41;4974110;28;20046;-76
2022/12/25 10:26:44;;;;;;;3.78;1.88;;;;;;;13.98;100.00;95581.16;4990834;28;20554;-75
2022/12/25 10:29:14;;;;;;;3.63;1.60;;;;;;;14.85;100.00;95577.00;4992138;28;20038;-75
2022/12/25 10:31:44;;;;;;;6.13;1.75;;;;;;;14.71;100.00;95584.97;4992123;28;20097;-76
2022/12/25 10:34:12;;;;;;;4.70;1.75;;;;;;;14.45;100.00;95570.59;4973798;28;20101;-75
2022/12/25 10:36:38;;;;;;;2.63;1.50;;;;;;;14.81;100.00;95575.25;4992470;28;20104;-75
2022/12/25 10:39:04;;;;;;;3.58;1.92;;;;;;;15.42;100.00;95574.00;4990162;28;20501;-76
2022/12/25 10:41:41;;;;;;;4.05;1.85;;;;;;;15.26;100.00;95564.81;4991356;28;20056;-76
2022/12/25 10:44:13;;;;;;;3.95;1.63;;;;;;;16.61;100.00;95550.00;4989248;28;20420;-76
2022/12/25 10:46:39;;;;;;;3.05;1.67;;;;;;;17.92;100.00;95544.13;4991033;28;20115;-76
2022/12/25 10:49:13;;;;;;;5.15;1.80;;;;;;;17.76;100.00;95536.59;4974272;28;20042;-74
2022/12/25 10:51:39;;;;;;;6.72;1.65;;;;;;;16.84;100.00;95536.59;4992952;28;20042;-75
2022/12/25 10:54:28;;;;;;;2.80;1.60;;;;;;;17.11;99.39;95533.75;4990604;28;20049;-75
2022/12/25 10:57:07;;;;;;;3.60;1.80;;;;;;;16.80;100.00;95534.56;4990409;28;20521;-76
2022/12/25 10:59:40;;;;;;;2.25;1.55;;;;;;;16.80;100.00;95523.94;4983144;28;20042;-75
2022/12/25 11:02:21;;;;;;;3.83;1.70;;;;;;;17.65;100.00;95516.72;4989096;28;20046;-75
2022/12/25 11:04:47;;;;;;;7.47;1.90;;;;;;;18.73;95.17;95518.47;4990920;28;20456;-75
2022/12/25 11:07:18;;;;;;;3.67;1.67;;;;;;;19.06;86.82;95523.19;4989486;28;20050;-75
2022/12/25 11:09:54;;;;;;;2.25;1.70;;;;;;;17.86;89.74;95524.03;4972886;28;20741;-75
2022/12/25 11:12:24;;;;;;;5.18;1.60;;;;;;;19.41;90.44;95522.97;4991956;28;20045;-75
2022/12/25 11:14:54;;;;;;;2.97;1.65;;;;;;;18.74;81.96;95520.06;4982872;28;20042;-75
2022/12/25 11:17:22;;;;;;;4.65;1.67;;;;;;;17.35;89.84;95527.19;4987010;28;20046;-75
2022/12/25 11:19:57;;;;;;;4.80;1.95;;;;;;;17.05;94.34;95524.34;4985441;28;20097;-75
2022/12/25 11:22:22;;;;;;;;;;;;;;;16.57;95.26;95509.19;4975509;28;20528;-75
2022/12/25 11:24:48;;;;;;;3.17;1.58;;;;;;;16.60;100.00;95509.34;4990368;28;19929;-74
2022/12/25 11:27:29;;;;;;;2.53;1.50;;;;;;;16.35;100.00;95500.19;4988579;28;20050;-76
2022/12/25 11:30:02;;;;;;;3.83;1.55;;;;;;;16.94;100.00;95501.81;4983460;28;20053;-75
2022/12/25 11:32:36;;;;;;;6.45;1.67;;;;;;;17.81;100.00;95501.84;4990325;28;20065;-75
2022/12/25 11:35:10;;;;;;;1.83;1.33;;;;;;;18.23;93.84;95500.50;4973066;28;20508;-75
2022/12/25 11:37:45;;;;;;;4.00;1.48;;;;;;;18.98;88.96;95492.06;4989053;28;20113;-75
2022/12/25 11:40:18;;;;;;;3.00;1.50;;;;;;;17.80;84.49;95488.81;4990585;28;20095;-75
2022/12/25 11:42:48;;;;;;;1.63;1.30;;;;;;;16.83;97.23;95489.88;4990982;28;20076;-75
2022/12/25 11:45:25;;;;;;;2.28;1.50;;;;;;;18.12;95.95;95479.53;4968994;28;20066;-76
2022/12/25 11:48:04;;;;;;;2.25;1.40;;;;;;;16.89;97.88;95488.66;4960291;28;20051;-75
2022/12/25 11:50:55;;;;;;;2.50;1.40;;;;;;;17.86;98.45;95486.78;4988068;28;20105;-75
2022/12/25 11:53:27;;;;;;;3.83;1.70;;;;;;;17.88;94.61;95484.59;4972042;28;20066;-75
2022/12/25 11:55:58;;;;;;;4.32;1.60;;;;;;;18.94;87.63;95472.47;4972872;28;20096;-75
2022/12/25 11:58:45;;;;;;;2.63;1.63;;;;;;;17.53;85.57;95468.66;4989192;28;20489;-75
2022/12/25 12:01:36;;;;;;;3.33;1.60;;;;;;;16.60;92.69;95472.16;4994753;28;20420;-76
2022/12/25 12:04:08;;;;;;;2.50;1.45;;;;;;;16.98;91.75;95460.22;4988055;28;20050;-76
2022/12/25 12:06:59;;;;;;;2.47;1.30;;;;;;;17.20;92.21;95455.88;4971065;28;20042;-75
2022/12/25 12:09:50;;;;;;;1.88;1.35;;;;;;;16.92;87.77;95450.81;4974256;28;20042;-76
2022/12/25 12:12:54;;;;;;;1.92;1.40;;;;;;;17.41;91.33;95446.16;4992366;28;20507;-74
2022/12/25 12:15:34;;;;;;;1.95;1.40;;;;;;;17.04;92.23;95451.00;4977082;28;20489;-76
2022/12/25 12:18:25;;;;;;;2.17;1.30;;;;;;;16.20;89.83;95447.50;4976600;28;20039;-75
2022/12/25 12:20:59;;;;;;;1.42;1.13;;;;;;;15.98;95.73;95443.81;4986668;28;20484;-75
2022/12/25 12:23:27;;;;;;;1.38;1.10;;;;;;;15.90;93.64;95450.66;4994524;28;20042;-75
2022/12/25 12:25:53;;;;;;;1.35;1.23;;;;;;;15.66;96.42;95443.00;4993882;28;20038;-75
2022/12/25 12:28:24;;;;;;;2.20;1.27;;;;;;;15.12;100.00;95434.19;4985836;28;20050;-75
2022/12/25 12:31:02;;;;;;;1.40;1.17;;;;;;;15.32;97.07;95441.66;4996631;28;20165;-75
2022/12/25 12:33:38;;;;;;;2.00;1.15;;;;;;;15.49;94.00;95434.94;4998564;28;20030;-75
2022/12/25 12:36:04;;;;;;;1.50;1.15;;;;;;;14.65;100.00;95424.59;4996079;28;20046;-75
2022/12/25 12:38:32;;;;;;;2.50;1.33;;;;;;;14.46;100.00;95429.19;4978665;28;20038;-75
2022/12/25 12:41:04;;;;;;;1.85;1.33;;;;;;;13.98;100.00;95417.91;4996999;28;20097;-75
2022/12/25 12:43:51;;;;;;;1.52;1.15;;;;;;;13.95;100.00;95412.41;4995604;28;20053;-75
2022/12/25 12:46:29;;;;;;;1.92;1.27;;;;;;;13.69;100.00;95411.03;4993582;28;20066;-75
2022/12/25 12:49:19;;;;;;;1.95;1.30;;;;;;;13.51;100.00;95419.78;4976686;28;20046;-73
2022/12/25 12:51:44;;;;;;;1.38;1.20;;;;;;;13.17;100.00;95415.53;4994852;28;20046;-75
2022/12/25 12:54:24;;;;;;;2.25;1.38;;;;;;;13.28;100.00;95422.22;4995505;28;20042;-75
2022/12/25 12:56:58;;;;;;;1.75;1.02;;;;;;;13.33;100.00;95414.22;4989183;28;20039;-75
2022/12/25 12:59:25;;;;;;;2.10;1.42;;;;;;;12.97;100.00;95396.28;4996801;28;20050;-76
2022/12/25 13:02:23;;;;;;;2.00;1.33;;;;;;;12.87;100.00;95406.97;4995121;28;20035;-74
2022/12/25 13:04:59;;;;;;;2.40;1.58;;;;;;;12.91;100.00;95407.97;4946153;28;20050;-75
2022/12/25 13:08:16;;;;;;;2.28;1.42;;;;;;;12.99;100.00;95407.34;4979822;28;20492;-74
2022/12/25 13:10:51;;;;;;;2.08;1.50;;;;;;;12.96;100.00;95405.28;4948394;28;20059;-75
2022/12/25 13:13:22;;;;;;;2.22;1.30;;;;;;;12.77;100.00;95401.84;4994696;28;20053;-75
2022/12/25 13:15:49;;;;;;;2.80;1.40;;;;;;;12.75;100.00;95404.00;4987925;28;20039;-75
2022/12/25 13:18:15;;;;;;;1.65;1.50;;;;;;;12.76;100.00;95410.84;4985703;28;20039;-75
2022/12/25 13:20:55;;;;;;;2.28;1.58;;;;;;;12.81;100.00;95416.84;4976152;28;20093;-75
2022/12/25 13:23:27;;;;;;;2.80;1.85;;;;;;;12.79;100.00;95415.56;4978215;28;20038;-75
2022/12/25 13:25:54;;;;;;;3.78;1.80;;;;;;;12.51;100.00;95404.81;4971762;28;20042;-75
2022/12/25 13:28:24;;;;;;;3.75;1.80;;;;;;;12.52;100.00;95411.69;4992080;28;20046;-75
2022/12/25 13:30:50;;;;;;;2.90;1.85;;;;;;;12.54;100.00;95398.19;4973128;28;20050;-75
2022/12/25 13:33:18;;;;;;;3.65;1.63;;;;;;;12.33;100.00;95397.69;4999487;28;20160;-75
2022/12/25 13:35:44;;;;;;;2.15;1.60;;;;;;;12.32;100.00;95380.28;4997235;28;20105;-75
2022/12/25 13:38:17;;;;;;;2.53;1.70;;;;;;;12.05;100.00;95374.53;4994154;28;20038;-75
2022/12/25 13:43:40;;;;;;;3.92;1.80;;;;;;;11.96;100.00;95374.34;5003241;28;20038;-75